Time;durP1;ratioP1;P1;durP2;ratioP2;P2;SDS_P1;SDS_P2;PMS_P1;PMS_P2;Temp;Humidity;BMP_temperature;BMP_pressure;BME280_temperature;BME280_humidity;BME280_pressure;Samples;Min_cycle;Max_cycle;Signal;HPM_P1;HPM_P2
2022/04/01 00:00:19;;;;;;;;;;;15.20;99.90;;;;;;5074578;28;20289;-73
2022/04/01 00:02:47;;;;;;;;;;;15.10;99.90;;;;;;5074838;28;20003;-73
2022/04/01 00:05:14;;;;;;;;;;;15.10;99.90;;;;;;5074732;28;19960;-74
2022/04/01 00:07:41;;;;;;;;;;;15.10;99.90;;;;;;5074703;28;19942;-74
2022/04/01 00:10:10;;;;;;;;;;;15.20;99.90;;;;;;5074439;28;20362;-73
2022/04/01 00:12:44;;;;;;;;;;;15.20;99.90;;;;;;5074659;28;20347;-73
2022/04/01 00:15:12;;;;;;;;;;;15.20;99.90;;;;;;5074552;28;20321;-73
2022/04/01 00:17:42;;;;;;;;;;;15.20;99.90;;;;;;5064237;28;19913;-73
2022/04/01 00:20:10;;;;;;;;;;;15.30;99.90;;;;;;5071741;28;19908;-73
2022/04/01 00:22:37;;;;;;;;;;;15.40;99.90;;;;;;5074329;28;19908;-73
2022/04/01 00:25:04;;;;;;;;;;;15.50;99.90;;;;;;5074114;28;19970;-73
2022/04/01 00:27:31;;;;;;;;;;;15.50;99.90;;;;;;5072994;28;19912;-74
2022/04/01 00:29:57;;;;;;;;;;;15.50;99.90;;;;;;5074280;28;19935;-73
2022/04/01 00:32:24;;;;;;;;;;;15.50;99.90;;;;;;5074183;28;19959;-72
2022/04/01 00:34:52;;;;;;;;;;;15.50;99.90;;;;;;5073980;28;19993;-72
2022/04/01 00:37:18;;;;;;;;;;;15.60;99.90;;;;;;5074119;28;20510;-73
2022/04/01 00:39:45;;;;;;;;;;;15.70;99.90;;;;;;5074038;28;19908;-72
2022/04/01 00:42:12;;;;;;;;;;;15.70;99.90;;;;;;5073575;28;19909;-72
2022/04/01 00:44:39;;;;;;;;;;;15.70;99.90;;;;;;5074176;28;19997;-72
2022/04/01 00:47:08;;;;;;;;;;;15.70;99.90;;;;;;5073881;28;20021;-72
2022/04/01 00:49:35;;;;;;;;;;;15.70;99.90;;;;;;5073926;28;19915;-72
2022/04/01 00:52:03;;;;;;;;;;;15.60;99.90;;;;;;5073878;28;20321;-72
2022/04/01 00:54:30;;;;;;;;;;;15.70;99.90;;;;;;5073610;28;20279;-72
2022/04/01 00:56:57;;;;;;;;;;;15.80;99.90;;;;;;5073377;28;19908;-72
2022/04/01 00:59:24;;;;;;;;;;;15.80;99.90;;;;;;5072446;28;19908;-72
2022/04/01 01:01:51;;;;;;;;;;;15.80;99.90;;;;;;5073580;28;19915;-72
2022/04/01 01:04:19;;;;;;;;;;;16.00;99.90;;;;;;5073127;28;19920;-72
2022/04/01 01:06:47;;;;;;;;;;;16.20;99.90;;;;;;5073428;28;19937;-72
2022/04/01 01:09:14;;;;;;;;;;;16.40;99.90;;;;;;5073616;28;19952;-72
2022/04/01 01:11:41;;;;;;;;;;;16.40;99.90;;;;;;5073348;28;19962;-72
2022/04/01 01:14:09;;;;;;;;;;;16.50;99.90;;;;;;5073345;28;19992;-72
2022/04/01 01:16:38;;;;;;;;;;;16.60;99.90;;;;;;5073355;28;19912;-71
2022/04/01 01:19:12;;;;;;;;;;;16.60;99.90;;;;;;5073519;28;19940;-72
2022/04/01 01:21:40;;;;;;;;;;;16.70;99.90;;;;;;5073376;28;19961;-72
2022/04/01 01:24:08;;;;;;;;;;;16.70;99.90;;;;;;5073339;28;19920;-72
2022/04/01 01:26:36;;;;;;;;;;;16.70;99.90;;;;;;5071959;28;19915;-72
2022/04/01 01:29:04;;;;;;;;;;;16.80;99.90;;;;;;5073222;28;20062;-72
2022/04/01 01:31:31;;;;;;;;;;;16.80;99.90;;;;;;5073438;28;19961;-71
2022/04/01 01:33:58;;;;;;;;;;;16.80;99.90;;;;;;5073330;28;19909;-71
2022/04/01 01:36:26;;;;;;;;;;;16.80;99.90;;;;;;5072997;28;19999;-72
2022/04/01 01:38:53;;;;;;;;;;;16.80;99.90;;;;;;5073344;28;19909;-72
2022/04/01 01:41:20;;;;;;;;;;;16.80;99.90;;;;;;5073128;28;19916;-71
2022/04/01 01:43:47;;;;;;;;;;;16.80;99.90;;;;;;5073113;28;19908;-74
2022/04/01 01:46:14;;;;;;;;;;;16.70;99.90;;;;;;5073136;28;19908;-73
2022/04/01 01:48:41;;;;;;;;;;;16.70;99.90;;;;;;5073135;28;19916;-73
2022/04/01 01:56:39;;;;;;;;;;;17.00;99.90;;;;;;5073313;28;19954;-73
2022/04/01 01:59:06;;;;;;;;;;;16.90;99.90;;;;;;5073046;28;19960;-73
2022/04/01 02:01:33;;;;;;;;;;;16.90;99.90;;;;;;5072953;28;19916;-73
2022/04/01 02:04:01;;;;;;;;;;;16.90;99.90;;;;;;5072873;28;20027;-73
2022/04/01 02:06:28;;;;;;;;;;;16.90;99.90;;;;;;5072825;28;20351;-74
2022/04/01 02:08:54;;;;;;;;;;;16.90;99.90;;;;;;5076052;28;19927;-73
2022/04/01 02:11:24;;;;;;;;;;;16.90;99.90;;;;;;5076904;28;19909;-73
2022/04/01 02:13:51;;;;;;;;;;;16.90;99.90;;;;;;5077081;28;19931;-73
2022/04/01 02:16:18;;;;;;;;;;;16.90;99.90;;;;;;5076765;28;20290;-73
2022/04/01 02:18:45;;;;;;;;;;;17.00;99.90;;;;;;5076813;28;19944;-74
2022/04/01 02:21:12;;;;;;;;;;;17.00;99.90;;;;;;5076788;28;19908;-73
2022/04/01 02:23:40;;;;;;;;;;;17.00;99.90;;;;;;5076909;28;19916;-72
2022/04/01 02:26:09;;;;;;;;;;;17.00;99.90;;;;;;5076686;28;19919;-73
2022/04/01 02:28:39;;;;;;;;;;;17.00;99.90;;;;;;5076620;28;20290;-73
2022/04/01 02:31:06;;;;;;;;;;;17.00;99.90;;;;;;5076785;28;19912;-73
2022/04/01 02:33:34;;;;;;;;;;;17.00;99.90;;;;;;5076524;28;19909;-73
2022/04/01 02:36:02;;;;;;;;;;;17.00;99.90;;;;;;5076474;28;20422;-73
2022/04/01 02:38:30;;;;;;;;;;;17.00;99.90;;;;;;5076315;28;19914;-73
2022/04/01 02:40:57;;;;;;;;;;;17.10;99.90;;;;;;5076283;28;20313;-71
2022/04/01 02:43:25;;;;;;;;;;;17.10;99.90;;;;;;5076378;28;19916;-71
2022/04/01 02:45:51;;;;;;;;;;;17.20;99.90;;;;;;5076226;28;20000;-71
2022/04/01 02:48:19;;;;;;;;;;;17.20;99.90;;;;;;5076008;28;19916;-71
2022/04/01 02:50:48;;;;;;;;;;;17.20;99.90;;;;;;5076257;28;19951;-71
2022/04/01 02:53:18;;;;;;;;;;;17.20;99.90;;;;;;5108896;28;19995;-72
2022/04/01 02:55:45;;;;;;;;;;;17.20;99.90;;;;;;5076128;28;20373;-72
2022/04/01 02:58:12;;;;;;;;;;;17.20;99.90;;;;;;5076122;28;20286;-71
2022/04/01 03:00:39;;;;;;;;;;;17.20;99.90;;;;;;5076090;28;19909;-72
2022/04/01 03:03:07;;;;;;;;;;;17.20;99.90;;;;;;5076030;28;19908;-71
2022/04/01 03:05:37;;;;;;;;;;;17.20;99.90;;;;;;5076091;28;20413;-72
2022/04/01 03:08:09;;;;;;;;;;;17.10;99.90;;;;;;5075975;28;20011;-72
2022/04/01 03:10:36;;;;;;;;;;;17.20;99.90;;;;;;5075775;28;20382;-72
2022/04/01 03:13:03;;;;;;;;;;;17.20;99.90;;;;;;5074584;28;20255;-72
2022/04/01 03:15:30;;;;;;;;;;;17.30;99.90;;;;;;5075767;28;19913;-72
2022/04/01 03:17:58;;;;;;;;;;;17.30;99.90;;;;;;5075862;28;19912;-72
2022/04/01 03:20:25;;;;;;;;;;;17.30;99.90;;;;;;5074279;28;20264;-72
2022/04/01 03:22:52;;;;;;;;;;;17.40;99.90;;;;;;5075726;28;20290;-71
2022/04/01 03:25:20;;;;;;;;;;;17.50;99.90;;;;;;5075384;28;19912;-70
2022/04/01 03:27:50;;;;;;;;;;;17.50;99.90;;;;;;5075407;28;19935;-70
2022/04/01 03:30:17;;;;;;;;;;;17.40;99.90;;;;;;5075213;28;19909;-70
2022/04/01 03:32:47;;;;;;;;;;;17.40;99.90;;;;;;5075309;28;19909;-70
2022/04/01 03:35:16;;;;;;;;;;;17.30;99.90;;;;;;5075535;28;19909;-72
2022/04/01 03:37:43;;;;;;;;;;;17.30;99.90;;;;;;5075407;28;19954;-72
2022/04/01 03:40:14;;;;;;;;;;;17.30;99.90;;;;;;5075026;28;19909;-71
2022/04/01 03:42:44;;;;;;;;;;;17.30;99.90;;;;;;5075368;28;20029;-72
2022/04/01 03:45:12;;;;;;;;;;;17.20;99.90;;;;;;5075289;28;20007;-71
2022/04/01 03:47:46;;;;;;;;;;;17.10;99.90;;;;;;5074990;28;19912;-71
2022/04/01 03:50:13;;;;;;;;;;;17.10;99.90;;;;;;5075023;28;20270;-71
2022/04/01 03:52:39;;;;;;;;;;;17.00;99.90;;;;;;5075017;28;19908;-71
2022/04/01 03:55:07;;;;;;;;;;;17.10;99.90;;;;;;5073558;28;20314;-71
2022/04/01 03:57:35;;;;;;;;;;;17.10;99.90;;;;;;5074899;28;19961;-72
2022/04/01 04:00:03;;;;;;;;;;;17.10;99.90;;;;;;5074837;28;19908;-72
2022/04/01 04:02:34;;;;;;;;;;;17.10;99.90;;;;;;5074453;28;19908;-70
2022/04/01 04:05:07;;;;;;;;;;;17.20;99.90;;;;;;5074628;28;19927;-70
2022/04/01 04:07:34;;;;;;;;;;;17.20;99.90;;;;;;5074557;28;19923;-70
2022/04/01 04:10:01;;;;;;;;;;;17.20;99.90;;;;;;5074069;28;19908;-70
2022/04/01 04:12:30;;;;;;;;;;;17.30;99.90;;;;;;5074377;28;20306;-70
2022/04/01 04:14:57;;;;;;;;;;;17.40;99.90;;;;;;5074354;28;20001;-70
2022/04/01 04:17:31;;;;;;;;;;;17.40;99.90;;;;;;5074424;28;19944;-70
2022/04/01 04:20:18;;;;;;;;;;;17.40;99.90;;;;;;5074489;28;19986;-70
2022/04/01 04:22:45;;;;;;;;;;;17.40;99.90;;;;;;5075670;28;20386;-69
2022/04/01 04:25:14;;;;;;;;;;;17.40;99.90;;;;;;5074296;28;20274;-71
2022/04/01 04:27:43;;;;;;;;;;;17.40;99.90;;;;;;5074129;28;20355;-71
2022/04/01 04:30:10;;;;;;;;;;;17.40;99.90;;;;;;5073608;28;19950;-71
2022/04/01 04:32:37;;;;;;;;;;;17.40;99.90;;;;;;5074270;28;19916;-70
2022/04/01 04:35:05;;;;;;;;;;;17.40;99.90;;;;;;5074021;28;19909;-71
2022/04/01 04:37:32;;;;;;;;;;;17.30;99.90;;;;;;5074027;28;19962;-70
2022/04/01 04:40:00;;;;;;;;;;;17.20;99.90;;;;;;5073761;28;19909;-71
2022/04/01 04:42:28;;;;;;;;;;;17.20;99.90;;;;;;5073825;28;20411;-71
2022/04/01 04:44:55;;;;;;;;;;;17.20;99.90;;;;;;5073994;28;19915;-70
2022/04/01 04:47:27;;;;;;;;;;;17.30;99.90;;;;;;5073752;28;19916;-70
2022/04/01 04:49:56;;;;;;;;;;;17.30;99.90;;;;;;5073830;28;20410;-71
2022/04/01 04:52:23;;;;;;;;;;;17.40;99.90;;;;;;5073561;28;19909;-71
2022/04/01 04:54:51;;;;;;;;;;;17.40;99.90;;;;;;5073648;28;19915;-71
2022/04/01 04:57:20;;;;;;;;;;;17.40;99.90;;;;;;5073557;28;19908;-70
2022/04/01 04:59:48;;;;;;;;;;;17.50;99.90;;;;;;5073632;28;19920;-71
2022/04/01 05:02:33;;;;;;;;;;;17.50;99.90;;;;;;5073417;28;20003;-71
2022/04/01 05:05:28;;;;;;;;;;;17.50;99.90;;;;;;5073390;28;19921;-71
2022/04/01 05:08:01;;;;;;;;;;;17.50;99.90;;;;;;5076946;28;19928;-71
2022/04/01 05:10:38;;;;;;;;;;;17.50;99.90;;;;;;5072513;28;21284;-71
2022/04/01 05:13:11;;;;;;;;;;;17.50;99.90;;;;;;5073715;28;19909;-70
2022/04/01 05:15:40;;;;;;;;;;;17.40;99.90;;;;;;5073594;28;20275;-71
2022/04/01 05:18:12;;;;;;;;;;;17.40;99.90;;;;;;5072208;28;19908;-71
2022/04/01 05:20:47;;;;;;;;;;;17.50;99.90;;;;;;5073607;28;20003;-71
2022/04/01 05:23:20;;;;;;;;;;;17.50;99.90;;;;;;5073483;28;20367;-71
2022/04/01 05:26:00;;;;;;;;;;;17.50;99.90;;;;;;5073280;28;19909;-71
2022/04/01 05:28:31;;;;;;;;;;;17.40;99.90;;;;;;5073205;28;20278;-71
2022/04/01 05:31:20;;;;;;;;;;;17.40;99.90;;;;;;5073446;28;19908;-71
2022/04/01 05:33:53;;;;;;;;;;;17.40;99.90;;;;;;5073323;28;20307;-73
2022/04/01 05:36:20;;;;;;;;;;;17.40;99.90;;;;;;5073227;28;19912;-73
2022/04/01 05:38:48;;;;;;;;;;;17.40;99.90;;;;;;5073159;28;20363;-71
2022/04/01 05:41:19;;;;;;;;;;;17.30;99.90;;;;;;5073250;28;19909;-71
2022/04/01 05:43:50;;;;;;;;;;;17.30;99.90;;;;;;5072603;28;19912;-71
2022/04/01 05:46:17;;;;;;;;;;;17.40;99.90;;;;;;5071618;28;19962;-71
2022/04/01 05:48:46;;;;;;;;;;;17.30;99.90;;;;;;5073076;28;20011;-70
2022/04/01 05:51:13;;;;;;;;;;;17.20;99.90;;;;;;5071624;28;20363;-70
2022/04/01 05:53:41;;;;;;;;;;;17.20;99.90;;;;;;5070959;28;20363;-71
2022/04/01 05:56:09;;;;;;;;;;;17.20;99.90;;;;;;5070878;28;19916;-71
2022/04/01 05:58:36;;;;;;;;;;;17.20;99.90;;;;;;5071054;28;19917;-72
2022/04/01 06:01:09;;;;;;;;;;;17.20;99.90;;;;;;5070981;28;20062;-71
2022/04/01 06:03:54;;;;;;;;;;;17.20;99.90;;;;;;5070756;28;19917;-71
2022/04/01 06:06:33;;;;;;;;;;;17.20;99.90;;;;;;5070530;28;19959;-72
2022/04/01 06:09:17;;;;;;;;;;;17.20;99.90;;;;;;5070618;28;19931;-71
2022/04/01 06:11:58;;;;;;;;;;;17.20;99.90;;;;;;5070858;28;19952;-72
2022/04/01 06:14:34;;;;;;;;;;;17.20;99.90;;;;;;5070577;28;19939;-71
2022/04/01 06:17:06;;;;;;;;;;;17.20;99.90;;;;;;5070724;28;20340;-71
2022/04/01 06:19:41;;;;;;;;;;;17.20;99.90;;;;;;5070844;28;19955;-71
2022/04/01 06:22:28;;;;;;;;;;;17.20;99.90;;;;;;5070698;28;19994;-71
2022/04/01 06:25:10;;;;;;;;;;;17.20;99.90;;;;;;5070443;28;20382;-71
2022/04/01 06:27:38;;;;;;;;;;;17.20;99.90;;;;;;5070742;28;19916;-71
2022/04/01 06:30:06;;;;;;;;;;;17.10;99.90;;;;;;5070416;28;20041;-71
2022/04/01 06:32:40;;;;;;;;;;;17.20;99.90;;;;;;5070752;28;19912;-70
2022/04/01 06:35:07;;;;;;;;;;;17.20;99.90;;;;;;5070568;28;19908;-71
2022/04/01 06:37:37;;;;;;;;;;;17.20;99.90;;;;;;5070458;28;19908;-71
2022/04/01 06:40:11;;;;;;;;;;;17.20;99.90;;;;;;5058925;28;19916;-71
2022/04/01 06:42:38;;;;;;;;;;;17.20;99.90;;;;;;5050380;28;19915;-71
2022/04/01 06:45:06;;;;;;;;;;;17.10;99.90;;;;;;5050291;28;19916;-71
2022/04/01 06:47:34;;;;;;;;;;;17.20;99.90;;;;;;5050363;28;19916;-71
2022/04/01 06:50:00;;;;;;;;;;;17.20;99.90;;;;;;5049900;28;19909;-71
2022/04/01 06:52:27;;;;;;;;;;;17.20;99.90;;;;;;5049720;28;19919;-71
2022/04/01 06:54:55;;;;;;;;;;;17.20;99.90;;;;;;5053115;28;20350;-69
2022/04/01 06:57:21;;;;;;;;;;;17.20;99.90;;;;;;5053977;28;20008;-70
2022/04/01 06:59:49;;;;;;;;;;;17.20;99.90;;;;;;5053774;28;19913;-70
2022/04/01 07:02:15;;;;;;;;;;;17.20;99.90;;;;;;5053524;28;20163;-70
2022/04/01 07:04:42;;;;;;;;;;;17.20;99.90;;;;;;5053253;28;19978;-69
2022/04/01 07:07:09;;;;;;;;;;;17.20;99.90;;;;;;5053411;28;19920;-70
2022/04/01 07:09:36;;;;;;;;;;;17.20;99.90;;;;;;5053578;28;20361;-70
2022/04/01 07:12:03;;;;;;;;;;;17.20;99.90;;;;;;5052158;28;19912;-70
2022/04/01 07:14:31;;;;;;;;;;;17.20;99.90;;;;;;5053564;28;19956;-69
2022/04/01 07:16:59;;;;;;;;;;;17.20;99.90;;;;;;5053494;28;20000;-71
2022/04/01 07:19:26;;;;;;;;;;;17.20;99.90;;;;;;5051389;28;19999;-69
2022/04/01 07:21:52;;;;;;;;;;;17.20;99.90;;;;;;5053652;28;19909;-71
2022/04/01 07:24:19;;;;;;;;;;;17.20;99.90;;;;;;5052830;28;20374;-71
2022/04/01 07:26:46;;;;;;;;;;;17.20;99.90;;;;;;5053534;28;20375;-71
2022/04/01 07:29:13;;;;;;;;;;;17.20;99.90;;;;;;5053629;28;19921;-71
2022/04/01 07:34:35;;;;;;;;;;;17.20;99.90;;;;;;5053805;28;19954;-70
2022/04/01 07:37:02;;;;;;;;;;;17.20;99.90;;;;;;5053619;28;19909;-71
2022/04/01 07:39:28;;;;;;;;;;;17.20;99.90;;;;;;5053373;28;19909;-70
2022/04/01 07:41:55;;;;;;;;;;;17.20;99.90;;;;;;5053475;28;20004;-70
2022/04/01 07:44:22;;;;;;;;;;;17.20;99.90;;;;;;5055342;28;19936;-70
2022/04/01 07:46:49;;;;;;;;;;;17.20;99.90;;;;;;5054181;28;19913;-70
2022/04/01 07:49:17;;;;;;;;;;;17.10;99.90;;;;;;5058395;28;19925;-70
2022/04/01 07:51:43;;;;;;;;;;;17.10;99.90;;;;;;5057870;28;20386;-70
2022/04/01 07:54:11;;;;;;;;;;;17.20;99.90;;;;;;5052754;28;19920;-71
2022/04/01 07:56:40;;;;;;;;;;;17.10;99.90;;;;;;5053074;28;20252;-70
2022/04/01 07:59:10;;;;;;;;;;;17.20;99.90;;;;;;5052561;28;19924;-70
2022/04/01 08:01:37;;;;;;;;;;;17.20;99.90;;;;;;5053077;28;20011;-70
2022/04/01 08:04:04;;;;;;;;;;;17.10;99.90;;;;;;5052608;28;19928;-70
2022/04/01 08:06:30;;;;;;;;;;;17.20;99.90;;;;;;5052454;28;19909;-70
2022/04/01 08:08:58;;;;;;;;;;;17.20;99.90;;;;;;5054448;28;19916;-69
2022/04/01 08:11:26;;;;;;;;;;;17.20;99.90;;;;;;5054669;28;20300;-70
2022/04/01 08:13:53;;;;;;;;;;;17.10;99.90;;;;;;5054626;28;20331;-70
2022/04/01 08:16:20;;;;;;;;;;;17.10;99.90;;;;;;5054433;28;19952;-70
2022/04/01 08:18:47;;;;;;;;;;;17.10;99.90;;;;;;5054650;28;20363;-70
2022/04/01 08:21:15;;;;;;;;;;;17.10;99.90;;;;;;5054257;28;19955;-70
2022/04/01 08:23:42;;;;;;;;;;;17.10;99.90;;;;;;5054307;28;19939;-70
2022/04/01 08:26:08;;;;;;;;;;;17.10;99.90;;;;;;5053936;28;19916;-70
2022/04/01 08:28:36;;;;;;;;;;;17.10;99.90;;;;;;5054131;28;20274;-70
2022/04/01 08:31:03;;;;;;;;;;;17.10;99.90;;;;;;5054139;28;19954;-70
2022/04/01 08:33:30;;;;;;;;;;;17.10;99.90;;;;;;5054144;28;19916;-70
2022/04/01 08:35:56;;;;;;;;;;;17.10;99.90;;;;;;5053953;28;19919;-70
2022/04/01 08:38:23;;;;;;;;;;;17.10;99.90;;;;;;5053621;28;19908;-70
2022/04/01 08:40:50;;;;;;;;;;;17.00;99.90;;;;;;5054192;28;19999;-71
2022/04/01 08:43:27;;;;;;;;;;;17.00;99.90;;;;;;5054484;28;19908;-70
2022/04/01 08:45:55;;;;;;;;;;;17.00;99.90;;;;;;5053510;28;20378;-71
2022/04/01 08:48:21;;;;;;;;;;;17.10;99.90;;;;;;5053548;28;19917;-70
2022/04/01 08:50:48;;;;;;;;;;;17.00;99.90;;;;;;5053838;28;19909;-70
2022/04/01 08:53:15;;;;;;;;;;;17.00;99.90;;;;;;5053895;28;19909;-70
2022/04/01 08:55:45;;;;;;;;;;;17.00;99.90;;;;;;5053936;28;19996;-70
2022/04/01 08:58:12;;;;;;;;;;;17.00;99.90;;;;;;5053591;28;19909;-70
2022/04/01 09:00:38;;;;;;;;;;;16.90;99.90;;;;;;5053227;28;19912;-70
2022/04/01 09:03:06;;;;;;;;;;;17.00;99.90;;;;;;5053756;28;19909;-70
2022/04/01 09:05:33;;;;;;;;;;;16.90;99.90;;;;;;5053641;28;20283;-70
2022/04/01 09:08:01;;;;;;;;;;;16.90;99.90;;;;;;5053585;28;19917;-70
2022/04/01 09:10:27;;;;;;;;;;;16.90;99.90;;;;;;5053483;28;20011;-69
2022/04/01 09:12:54;;;;;;;;;;;16.90;99.90;;;;;;5060940;28;19908;-70
2022/04/01 09:15:21;;;;;;;;;;;16.90;99.90;;;;;;5050222;28;20026;-70
2022/04/01 09:17:50;;;;;;;;;;;16.90;99.90;;;;;;5050551;28;19963;-70
2022/04/01 09:20:17;;;;;;;;;;;16.90;99.90;;;;;;5050501;28;19913;-70
2022/04/01 09:22:45;;;;;;;;;;;16.90;99.90;;;;;;5050678;28;20011;-70
2022/04/01 09:25:12;;;;;;;;;;;16.90;99.90;;;;;;5050320;28;19912;-70
2022/04/01 09:27:38;;;;;;;;;;;16.90;99.90;;;;;;5050674;28;20003;-70
2022/04/01 09:30:06;;;;;;;;;;;16.90;99.90;;;;;;5050489;28;19909;-69
2022/04/01 09:32:43;;;;;;;;;;;16.90;99.90;;;;;;5050441;28;19913;-70
2022/04/01 09:35:11;;;;;;;;;;;16.80;99.90;;;;;;5050620;28;19909;-70
2022/04/01 09:37:45;;;;;;;;;;;16.80;99.90;;;;;;5050102;28;19959;-70
2022/04/01 09:40:13;;;;;;;;;;;16.80;99.90;;;;;;5050412;28;20290;-70
2022/04/01 09:42:47;;;;;;;;;;;16.80;99.90;;;;;;5050426;28;19912;-70
2022/04/01 09:45:20;;;;;;;;;;;16.80;99.90;;;;;;5049839;28;20399;-70
2022/04/01 09:48:07;;;;;;;;;;;16.80;99.90;;;;;;5050293;28;19912;-70
2022/04/01 09:50:35;;;;;;;;;;;16.80;99.90;;;;;;5049907;28;20287;-70
2022/04/01 09:53:15;;;;;;;;;;;16.80;99.90;;;;;;5050277;28;19916;-69
2022/04/01 09:55:43;;;;;;;;;;;16.80;99.90;;;;;;5050236;28;19909;-69
2022/04/01 09:58:10;;;;;;;;;;;16.70;99.90;;;;;;5050126;28;19913;-69
2022/04/01 10:00:37;;;;;;;;;;;16.70;99.90;;;;;;5049634;28;19920;-69
2022/04/01 10:03:05;;;;;;;;;;;16.70;99.90;;;;;;5050063;28;19920;-70
2022/04/01 10:05:32;;;;;;;;;;;16.70;99.90;;;;;;5050016;28;20402;-70
2022/04/01 10:08:00;;;;;;;;;;;16.70;99.90;;;;;;5049865;28;20286;-69
2022/04/01 10:10:28;;;;;;;;;;;16.70;99.90;;;;;;5049984;28;19912;-70
2022/04/01 10:12:57;;;;;;;;;;;16.70;99.90;;;;;;5050137;28;19912;-71
2022/04/01 10:15:23;;;;;;;;;;;16.60;99.90;;;;;;5049679;28;19909;-69
2022/04/01 10:17:53;;;;;;;;;;;16.60;99.90;;;;;;5049721;28;19916;-70
2022/04/01 10:20:22;;;;;;;;;;;16.60;99.90;;;;;;5049776;28;19908;-69
2022/04/01 10:22:48;;;;;;;;;;;16.60;99.90;;;;;;5049861;28;19972;-70
2022/04/01 10:25:16;;;;;;;;;;;16.50;99.90;;;;;;5050040;28;19909;-70
2022/04/01 10:27:47;;;;;;;;;;;16.60;99.90;;;;;;5049867;28;19916;-70
2022/04/01 10:30:18;;;;;;;;;;;16.50;99.90;;;;;;5052644;28;19920;-69
2022/04/01 10:32:46;;;;;;;;;;;16.50;99.90;;;;;;5053722;28;19916;-69
2022/04/01 10:35:22;;;;;;;;;;;16.50;99.90;;;;;;5053842;28;19938;-70
2022/04/01 10:37:53;;;;;;;;;;;16.50;99.90;;;;;;5053605;28;20547;-70
2022/04/01 10:40:20;;;;;;;;;;;16.50;99.90;;;;;;5053583;28;19913;-69
2022/04/01 10:42:47;;;;;;;;;;;16.40;99.90;;;;;;5053360;28;19932;-69
2022/04/01 10:45:14;;;;;;;;;;;16.40;99.90;;;;;;5052905;28;19952;-69
2022/04/01 10:53:52;;;;;;;;;;;16.50;99.90;;;;;;5053207;28;19915;-70
2022/04/01 10:56:25;;;;;;;;;;;16.50;99.90;;;;;;5052894;28;20464;-71
2022/04/01 10:59:04;;;;;;;;;;;16.50;99.90;;;;;;5052960;28;20003;-71
2022/04/01 11:01:31;;;;;;;;;;;16.50;99.90;;;;;;5053595;28;20256;-70
2022/04/01 11:04:13;;;;;;;;;;;16.50;99.90;;;;;;5053106;28;19974;-71
2022/04/01 11:06:53;;;;;;;;;;;16.50;99.90;;;;;;5053027;28;19909;-70
2022/04/01 11:09:35;;;;;;;;;;;16.40;99.90;;;;;;5052645;28;19917;-71
2022/04/01 11:12:19;;;;;;;;;;;16.50;99.90;;;;;;5053167;28;19916;-71
2022/04/01 11:15:08;;;;;;;;;;;16.40;99.90;;;;;;5052592;28;19912;-70
2022/04/01 11:17:38;;;;;;;;;;;16.40;99.90;;;;;;5053209;28;19916;-71
2022/04/01 11:20:07;;;;;;;;;;;16.40;99.90;;;;;;5053036;28;20359;-71
2022/04/01 11:22:39;;;;;;;;;;;16.40;99.90;;;;;;5052372;28;19948;-71
2022/04/01 11:25:06;;;;;;;;;;;16.40;99.90;;;;;;5052727;28;20432;-71
2022/04/01 11:27:36;;;;;;;;;;;16.40;99.90;;;;;;5052781;28;19974;-71
2022/04/01 11:30:06;;;;;;;;;;;16.40;99.90;;;;;;5052287;28;20359;-72
2022/04/01 11:32:39;;;;;;;;;;;16.30;99.90;;;;;;5052831;28;20290;-71
2022/04/01 11:35:06;;;;;;;;;;;16.30;99.90;;;;;;5052281;28;19909;-70
2022/04/01 11:37:43;;;;;;;;;;;16.30;99.90;;;;;;5052792;28;19909;-70
2022/04/01 11:40:11;;;;;;;;;;;16.30;99.90;;;;;;5051618;28;19913;-71
2022/04/01 11:42:50;;;;;;;;;;;16.30;99.90;;;;;;5052357;28;19909;-72
2022/04/01 11:45:17;;;;;;;;;;;16.30;99.90;;;;;;5052570;28;19916;-71
2022/04/01 11:47:44;;;;;;;;;;;16.20;99.90;;;;;;5051910;28;20168;-70
2022/04/01 11:50:11;;;;;;;;;;;16.30;99.90;;;;;;5052489;28;19913;-71
2022/04/01 11:52:44;;;;;;;;;;;16.30;99.90;;;;;;5052188;28;19909;-71
2022/04/01 11:55:15;;;;;;;;;;;16.30;99.90;;;;;;5052290;28;19915;-70
2022/04/01 11:57:42;;;;;;;;;;;16.30;99.90;;;;;;5050550;28;20289;-71
2022/04/01 12:00:15;;;;;;;;;;;16.30;99.90;;;;;;5052121;28;19909;-71
2022/04/01 12:02:42;;;;;;;;;;;16.30;99.90;;;;;;5051919;28;19913;-71
2022/04/01 12:05:10;;;;;;;;;;;16.30;99.90;;;;;;5067417;28;20287;-70
2022/04/01 12:10:22;;;;;;;;;;;16.30;99.90;;;;;;5052302;28;19920;-70
2022/04/01 12:12:56;;;;;;;;;;;16.30;99.90;;;;;;5051424;28;19938;-69
2022/04/01 12:15:31;;;;;;;;;;;16.30;99.90;;;;;;5051682;28;19912;-69
2022/04/01 12:18:00;;;;;;;;;;;16.30;99.90;;;;;;5052111;28;20275;-69
2022/04/01 12:20:28;;;;;;;;;;;16.30;99.90;;;;;;5069099;28;19919;-69
2022/04/01 12:22:56;;;;;;;;;;;16.30;99.90;;;;;;5072517;28;20621;-69
2022/04/01 12:25:23;;;;;;;;;;;16.40;99.90;;;;;;5072341;28;19920;-69
2022/04/01 12:27:56;;;;;;;;;;;16.40;99.90;;;;;;5070674;28;20024;-70
2022/04/01 12:30:29;;;;;;;;;;;16.40;99.90;;;;;;5072256;28;19919;-70
2022/04/01 12:32:56;;;;;;;;;;;16.40;99.90;;;;;;5072474;28;19913;-73
2022/04/01 12:35:23;;;;;;;;;;;16.40;99.90;;;;;;5072394;28;19909;-72
2022/04/01 12:38:03;;;;;;;;;;;16.50;99.90;;;;;;5072236;28;19919;-72
2022/04/01 12:40:48;;;;;;;;;;;16.50;99.90;;;;;;5071550;28;19908;-72
2022/04/01 12:43:30;;;;;;;;;;;16.50;99.90;;;;;;5072223;28;19915;-72
2022/04/01 12:45:58;;;;;;;;;;;16.50;99.90;;;;;;5072080;28;19931;-72
2022/04/01 12:48:26;;;;;;;;;;;16.50;99.90;;;;;;5071835;28;19956;-72
2022/04/01 12:50:55;;;;;;;;;;;16.50;99.90;;;;;;5071946;28;20011;-72
2022/04/01 12:53:22;;;;;;;;;;;16.50;99.90;;;;;;5071599;28;19908;-72
2022/04/01 12:55:48;;;;;;;;;;;16.50;99.90;;;;;;5072093;28;20366;-71
2022/04/01 12:58:16;;;;;;;;;;;16.50;99.90;;;;;;5071735;28;19918;-71
2022/04/01 13:00:43;;;;;;;;;;;16.50;99.90;;;;;;5071858;28;19908;-71
2022/04/01 13:03:10;;;;;;;;;;;16.50;99.90;;;;;;5071656;28;19944;-71
2022/04/01 13:05:37;;;;;;;;;;;16.40;99.90;;;;;;5071752;28;20019;-70
2022/04/01 13:08:08;;;;;;;;;;;16.40;99.90;;;;;;5071253;28;20359;-70
2022/04/01 13:10:35;;;;;;;;;;;16.40;99.90;;;;;;5071806;28;20256;-71
2022/04/01 13:13:15;;;;;;;;;;;16.40;99.90;;;;;;5071726;28;19919;-70
2022/04/01 13:15:48;;;;;;;;;;;16.40;99.90;;;;;;5071607;28;19909;-71
2022/04/01 13:18:22;;;;;;;;;;;16.40;99.90;;;;;;5071343;28;19908;-71
2022/04/01 13:20:49;;;;;;;;;;;16.30;99.90;;;;;;5071240;28;19909;-71
2022/04/01 13:23:17;;;;;;;;;;;16.30;99.90;;;;;;5071502;28;19908;-71
2022/04/01 13:25:43;;;;;;;;;;;16.30;99.90;;;;;;5071609;28;20019;-71
2022/04/01 13:28:11;;;;;;;;;;;16.30;99.90;;;;;;5071231;28;19920;-71
2022/04/01 13:30:38;;;;;;;;;;;16.20;99.90;;;;;;5071430;28;19916;-71
2022/04/01 13:33:05;;;;;;;;;;;16.20;99.90;;;;;;5071116;28;19908;-71
2022/04/01 13:35:32;;;;;;;;;;;16.20;99.90;;;;;;5071572;28;19912;-71
2022/04/01 13:37:58;;;;;;;;;;;16.10;99.90;;;;;;5071307;28;19951;-72
2022/04/01 13:40:25;;;;;;;;;;;16.10;99.90;;;;;;5071105;28;19912;-71
2022/04/01 13:42:52;;;;;;;;;;;16.10;99.90;;;;;;5070088;28;19915;-71
2022/04/01 13:45:19;;;;;;;;;;;16.10;99.90;;;;;;5071052;28;19952;-71
2022/04/01 13:47:46;;;;;;;;;;;16.10;99.90;;;;;;5071192;28;19916;-71
2022/04/01 13:50:12;;;;;;;;;;;16.10;99.90;;;;;;5071066;28;19919;-71
2022/04/01 13:52:39;;;;;;;;;;;16.10;99.90;;;;;;5071191;28;19909;-71
2022/04/01 13:55:06;;;;;;;;;;;16.10;99.90;;;;;;5071247;28;19939;-71
2022/04/01 13:57:32;;;;;;;;;;;16.10;99.90;;;;;;5071211;28;19920;-72
2022/04/01 13:59:59;;;;;;;;;;;16.10;99.90;;;;;;5071002;28;20282;-71
2022/04/01 14:02:25;;;;;;;;;;;16.00;99.90;;;;;;5070878;28;20355;-71
2022/04/01 14:04:52;;;;;;;;;;;16.10;99.90;;;;;;5074179;28;19920;-71
2022/04/01 14:07:19;;;;;;;;;;;16.00;99.90;;;;;;5075008;28;20003;-71
2022/04/01 14:09:46;;;;;;;;;;;16.00;99.90;;;;;;5075223;28;19916;-71
2022/04/01 14:12:13;;;;;;;;;;;16.00;99.90;;;;;;5074662;28;20295;-71
2022/04/01 14:14:40;;;;;;;;;;;16.00;99.90;;;;;;5075037;28;19909;-71
2022/04/01 14:17:07;;;;;;;;;;;16.00;99.90;;;;;;5073607;28;19913;-71
2022/04/01 14:19:34;;;;;;;;;;;16.00;99.90;;;;;;5074958;28;20078;-71
2022/04/01 14:22:00;;;;;;;;;;;16.00;99.90;;;;;;5074708;28;19909;-71
2022/04/01 14:24:28;;;;;;;;;;;16.00;99.90;;;;;;5074515;28;19912;-71
2022/04/01 14:26:57;;;;;;;;;;;16.00;99.90;;;;;;5074746;28;19915;-71
2022/04/01 14:32:08;;;;;;;;;;;15.90;99.90;;;;;;5074619;28;20049;-70
2022/04/01 14:34:37;;;;;;;;;;;15.80;99.90;;;;;;5074562;28;19908;-71
2022/04/01 14:37:05;;;;;;;;;;;15.70;99.90;;;;;;5074505;28;19982;-71
2022/04/01 14:39:32;;;;;;;;;;;15.70;99.90;;;;;;5074219;28;19908;-71
2022/04/01 14:41:59;;;;;;;;;;;15.80;99.90;;;;;;5074494;28;19909;-71
2022/04/01 14:44:25;;;;;;;;;;;15.80;99.90;;;;;;5074320;28;20328;-71
2022/04/01 14:46:52;;;;;;;;;;;15.90;99.90;;;;;;5074417;28;19915;-72